Impacts TAF Board INFO
FOR SITUATIONAL AWARENESS. NOT TO BE USED FOR FLIGHT PLANNING PURPOSES.
IDs:

KPDX - Portland Intl Arpt, OR, US

Issued at 1749 UTC 16 Dec 2017
Updated at 1848 UTC 16 Dec 2017
Potential Impact None Slight Moderate High
Time1753Z 16/19Z 16/20Z 16/21Z 16/22Z 16/23Z 17/00Z 17/01Z 17/02Z 17/03Z 17/04Z 17/05Z 17/06Z 17/07Z>>
Type OBS PRVL PRVL PRVL PRVL PRVL PRVL PRVL PRVL PRVL PRVL PRVL PRVL PRVL
VIS 10 >6 >6 >6 >6 >6 >6 >6 >6 >6 >6 >6 >6 >6
CIG 50 50 50 50 50 50 50 50 50 50 50 40 40 40
Cover OVC OVC OVC OVC OVC OVC OVC OVC OVC OVC OVC OVC OVC OVC
FltCat VFR VFR VFR VFR VFR VFR VFR VFR VFR VFR VFR VFR VFR VFR
WX -- VCSH VCSH VCSH VCSH VCSH VCSH VCSH VCSH VCSH VCSH -RA -RA -RA
WDir 140 150 150 150 150 150 150 150 150 150 150 130 130 130
WSpd 6 6 6 6 6 6 6 6 6 6 6 5 5 5
WGst -- -- -- -- -- -- -- -- -- -- -- -- -- --

Raw TAF
KPDX 161749Z 1618/1718 15006KT P6SM VCSH FEW025 SCT040 OVC050
  FM170500 13005KT P6SM -RA SCT025 OVC040
  FM171600 14009KT P6SM -RA SCT015 OVC025


Raw METAR
KPDX 161753Z 14006KT 10SM SCT032 OVC050 06/04 A3039 RMK AO2 SLP291 60001 T00560039 10056 20039 51014
KPDX 161653Z 13006KT 10SM SCT033 OVC055 05/04 A3038 RMK AO2 SLP289 T00500039
KPDX 161553Z 13005KT 10SM FEW025 BKN033 OVC042 04/03 A3037 RMK AO2 SLP282 T00440033

METAR Board
Radar Display
Forecast Discussion

FOR SITUATIONAL AWARENESS. NOT TO BE USED FOR FLIGHT PLANNING PURPOSES.